Time;durP1;ratioP1;P1;durP2;ratioP2;P2;SDS_P1;SDS_P2;PMS_P1;PMS_P2;Temp;Humidity;BMP_temperature;BMP_pressure;BME280_temperature;BME280_humidity;BME280_pressure;Samples;Min_cycle;Max_cycle;Signal;HPM_P1;HPM_P2
2023/02/23 00:01:21;;;;;;;12.15;1.80;;;14.90;47.30;;;;;;5085153;28;20151;-62
2023/02/23 00:03:48;;;;;;;9.98;1.90;;;14.90;47.60;;;;;;5104605;28;20064;-63
2023/02/23 00:06:16;;;;;;;10.88;1.60;;;14.90;47.90;;;;;;5105084;28;20112;-67
2023/02/23 00:08:43;;;;;;;7.60;1.80;;;14.90;48.10;;;;;;5098633;28;20093;-65
2023/02/23 00:11:11;;;;;;;9.40;1.95;;;14.70;48.30;;;;;;5100329;28;20096;-64
2023/02/23 00:13:39;;;;;;;15.90;2.03;;;14.70;48.60;;;;;;5105670;28;20099;-64
2023/02/23 00:16:15;;;;;;;10.57;1.50;;;14.60;48.90;;;;;;5097043;28;20120;-66
2023/02/23 00:18:49;;;;;;;17.27;1.88;;;14.60;48.80;;;;;;5104236;28;20116;-65
2023/02/23 00:21:34;;;;;;;8.13;1.80;;;14.60;48.70;;;;;;5101721;28;20096;-65
2023/02/23 00:24:07;;;;;;;6.95;1.45;;;14.70;48.70;;;;;;5100417;28;20084;-65
2023/02/23 00:26:35;;;;;;;13.23;1.30;;;14.80;48.90;;;;;;5095582;28;20424;-62
2023/02/23 00:29:05;;;;;;;10.13;2.20;;;14.80;48.40;;;;;;5095316;28;20099;-63
2023/02/23 00:31:32;;;;;;;7.18;2.05;;;14.70;47.90;;;;;;5106332;28;20072;-64
2023/02/23 00:34:01;;;;;;;6.78;1.80;;;14.50;48.40;;;;;;5101902;28;20479;-66
2023/02/23 00:36:29;;;;;;;8.23;1.48;;;14.40;48.10;;;;;;5096940;28;20075;-63
2023/02/23 00:38:59;;;;;;;7.18;2.10;;;14.40;48.30;;;;;;5101761;28;20119;-65
2023/02/23 00:41:29;;;;;;;7.20;1.70;;;14.60;47.40;;;;;;5101652;28;20068;-64
2023/02/23 00:43:58;;;;;;;6.38;1.30;;;14.80;46.40;;;;;;5106405;28;20209;-64
2023/02/23 00:46:27;;;;;;;14.02;2.47;;;14.60;43.80;;;;;;5086675;28;20488;-59
2023/02/23 00:48:55;;;;;;;9.02;1.58;;;14.50;44.30;;;;;;5102140;28;20094;-61
2023/02/23 00:51:25;;;;;;;7.82;1.40;;;14.50;43.70;;;;;;5101600;28;20091;-63
2023/02/23 00:53:55;;;;;;;10.48;1.45;;;14.50;44.50;;;;;;5101185;28;20096;-65
2023/02/23 00:56:22;;;;;;;5.45;1.17;;;14.40;44.60;;;;;;5101120;28;20196;-64
2023/02/23 00:58:49;;;;;;;9.77;1.75;;;14.30;45.10;;;;;;5100081;28;20105;-66
2023/02/23 01:01:16;;;;;;;9.07;1.70;;;14.20;45.90;;;;;;5099160;28;20107;-66
2023/02/23 01:03:43;;;;;;;6.78;1.60;;;14.10;46.70;;;;;;5102263;28;20537;-65
2023/02/23 01:06:13;;;;;;;9.30;1.83;;;14.10;47.50;;;;;;5102123;28;20076;-63
2023/02/23 01:08:55;;;;;;;5.07;1.88;;;14.10;47.80;;;;;;5099327;28;20080;-65
2023/02/23 01:11:27;;;;;;;10.25;1.38;;;14.00;48.00;;;;;;5101531;28;20594;-69
2023/02/23 01:13:56;;;;;;;5.25;1.50;;;14.00;47.90;;;;;;5100891;28;20064;-65
2023/02/23 01:16:27;;;;;;;4.82;1.42;;;13.80;48.00;;;;;;5101272;28;20550;-66
2023/02/23 01:18:55;;;;;;;7.50;1.63;;;13.80;49.00;;;;;;5095282;28;20108;-64
2023/02/23 01:21:31;;;;;;;12.35;1.73;;;13.60;48.80;;;;;;5104261;28;20207;-65
2023/02/23 01:23:58;;;;;;;8.18;2.65;;;13.60;49.10;;;;;;5097925;28;20079;-63
2023/02/23 01:26:30;;;;;;;17.90;2.20;;;13.60;49.30;;;;;;5101963;28;20549;-64
2023/02/23 01:29:03;;;;;;;7.00;1.88;;;13.50;49.60;;;;;;5099605;28;20107;-65
2023/02/23 01:31:30;;;;;;;4.85;2.08;;;13.50;50.20;;;;;;5097579;28;20096;-65
2023/02/23 01:33:59;;;;;;;12.10;2.50;;;13.30;50.60;;;;;;5102976;28;20438;-64
2023/02/23 01:36:30;;;;;;;8.43;2.03;;;13.30;50.70;;;;;;5099286;28;20083;-63
2023/02/23 01:38:58;;;;;;;20.23;2.80;;;13.10;50.80;;;;;;5104085;28;20088;-63
2023/02/23 01:41:31;;;;;;;9.40;2.40;;;12.90;51.20;;;;;;5067393;28;20182;-61
2023/02/23 01:44:07;;;;;;;17.48;2.53;;;12.90;51.10;;;;;;5101376;28;20069;-62
2023/02/23 01:46:37;;;;;;;10.15;1.80;;;13.00;50.80;;;;;;5103669;28;20067;-60
2023/02/23 01:49:07;;;;;;;7.03;1.92;;;13.00;50.70;;;;;;5100790;28;20630;-61
2023/02/23 01:51:39;;;;;;;14.20;2.15;;;13.00;50.50;;;;;;5100901;28;20096;-63
2023/02/23 01:54:35;;;;;;;9.18;1.90;;;13.00;50.40;;;;;;5097430;28;20068;-67
2023/02/23 01:57:05;;;;;;;5.97;1.30;;;13.00;50.20;;;;;;5098686;28;20488;-63
2023/02/23 01:59:41;;;;;;;4.40;1.30;;;12.90;49.80;;;;;;5096279;28;20084;-62
2023/02/23 02:02:07;;;;;;;7.93;1.63;;;12.80;49.90;;;;;;5103143;28;20067;-64
2023/02/23 02:04:43;;;;;;;6.22;1.58;;;12.70;50.30;;;;;;5105409;28;20245;-62
2023/02/23 02:07:16;;;;;;;8.48;1.73;;;12.60;51.00;;;;;;5101700;28;20538;-64
2023/02/23 02:10:38;;;;;;;7.85;2.10;;;12.50;52.00;;;;;;5103817;28;20113;-67
2023/02/23 02:12:30;;;;;;;10.85;1.98;;;12.50;52.40;;;;;;5105423;28;20105;-64
2023/02/23 02:14:58;;;;;;;;;;;12.50;53.10;;;;;;5102329;28;20068;-65
2023/02/23 02:17:30;;;;;;;6.50;1.90;;;12.40;54.00;;;;;;5100246;28;19964;-59
2023/02/23 02:20:44;;;;;;;12.48;2.45;;;12.30;54.80;;;;;;5100938;28;20529;-63
2023/02/23 02:23:46;;;;;;;10.75;2.00;;;12.30;55.30;;;;;;5103419;28;20140;-61
2023/02/23 02:26:43;;;;;;;12.73;1.98;;;12.20;56.40;;;;;;5100074;28;20107;-65
2023/02/23 02:29:37;;;;;;;11.33;2.23;;;12.20;57.00;;;;;;5103535;28;20115;-66
2023/02/23 02:32:25;;;;;;;9.18;2.38;;;12.20;56.70;;;;;;5106278;28;20065;-61
2023/02/23 02:35:19;;;;;;;8.95;1.83;;;12.10;58.00;;;;;;5108743;28;20072;-64
2023/02/23 02:38:18;;;;;;;9.50;2.03;;;12.20;58.50;;;;;;5089919;28;20080;-61
2023/02/23 02:41:30;;;;;;;11.65;2.30;;;12.10;58.50;;;;;;5102525;28;20084;-67
2023/02/23 02:44:14;;;;;;;7.97;2.38;;;12.00;59.00;;;;;;5020968;28;20105;-61
2023/02/23 02:46:48;;;;;;;11.00;2.42;;;12.00;59.70;;;;;;5111028;28;20068;-54
2023/02/23 02:49:25;;;;;;;13.00;2.08;;;12.00;60.10;;;;;;5077265;28;20155;-61
2023/02/23 02:52:05;;;;;;;12.43;2.15;;;11.90;60.60;;;;;;5107174;28;20091;-62
2023/02/23 02:54:35;;;;;;;6.78;1.75;;;11.90;60.00;;;;;;5107249;28;20082;-62
2023/02/23 02:57:03;;;;;;;10.05;1.67;;;11.90;60.10;;;;;;5106900;28;20068;-63
2023/02/23 04:19:36;;;;;;;10.55;1.92;;;12.10;53.30;;;;;;5107018;28;20119;-61
2023/02/23 04:22:02;;;;;;;10.85;1.70;;;12.20;53.60;;;;;;5105971;28;20553;-64
2023/02/23 04:24:28;;;;;;;;;;;12.10;52.90;;;;;;5107419;28;20091;-64
2023/02/23 04:26:54;;;;;;;14.27;2.33;;;12.10;53.30;;;;;;5100961;28;20044;-61
2023/02/23 04:29:21;;;;;;;10.10;1.80;;;12.10;53.00;;;;;;5097040;28;20108;-64
2023/02/23 04:31:47;;;;;;;;;;;12.10;52.60;;;;;;5108319;28;20064;-60
2023/02/23 04:34:14;;;;;;;10.68;1.80;;;12.10;52.20;;;;;;5100925;28;20011;-60
2023/02/23 04:36:41;;;;;;;9.45;2.05;;;12.10;52.00;;;;;;5105385;28;20069;-63
2023/02/23 04:39:07;;;;;;;6.28;1.42;;;12.10;52.20;;;;;;5098694;28;20099;-63
2023/02/23 04:41:33;;;;;;;;;;;12.20;52.20;;;;;;5106342;28;20080;-65
2023/02/23 04:44:00;;;;;;;6.32;1.58;;;12.20;52.20;;;;;;5105164;28;19972;-59
2023/02/23 04:46:26;;;;;;;;;;;12.20;52.20;;;;;;5106084;28;20472;-63
2023/02/23 04:48:52;;;;;;;6.72;1.60;;;12.10;52.20;;;;;;5105949;28;19987;-64
2023/02/23 04:51:18;;;;;;;;;;;12.10;52.40;;;;;;5106913;28;20076;-63
2023/02/23 04:53:44;;;;;;;6.93;1.80;;;12.10;51.90;;;;;;5106291;28;20085;-64
2023/02/23 04:56:11;;;;;;;;;;;12.10;52.40;;;;;;5107054;28;20077;-61
2023/02/23 04:58:37;;;;;;;8.43;1.85;;;12.10;52.50;;;;;;5107659;28;20028;-63
2023/02/23 05:01:05;;;;;;;;;;;12.10;52.50;;;;;;5099718;28;20561;-63
2023/02/23 05:03:31;;;;;;;4.53;1.50;;;12.10;51.80;;;;;;5102233;28;19961;-64
2023/02/23 05:05:57;;;;;;;;;;;12.10;51.20;;;;;;5106101;28;20094;-67
2023/02/23 05:08:23;;;;;;;;;;;12.10;51.30;;;;;;5109129;28;20151;-61
2023/02/23 05:10:49;;;;;;;;;;;12.10;51.20;;;;;;5107767;28;20050;-64
2023/02/23 05:13:15;;;;;;;;;;;12.10;50.90;;;;;;5108448;28;20090;-66
2023/02/23 05:15:41;;;;;;;;;;;12.10;50.80;;;;;;5105152;28;19964;-63
2023/02/23 05:18:08;;;;;;;;;;;12.10;50.80;;;;;;5106222;28;20315;-64
2023/02/23 05:20:34;;;;;;;;;;;12.10;50.90;;;;;;5101553;28;19995;-63
2023/02/23 05:23:00;;;;;;;;;;;12.10;51.10;;;;;;5109265;28;20326;-64
2023/02/23 05:25:26;;;;;;;;;;;12.10;51.20;;;;;;5107872;28;20018;-59
2023/02/23 05:27:52;;;;;;;;;;;12.10;51.60;;;;;;5106462;28;20342;-63
2023/02/23 05:30:18;;;;;;;;;;;12.10;51.40;;;;;;5106545;28;20414;-64
2023/02/23 05:32:44;;;;;;;;;;;12.00;51.40;;;;;;5105397;28;19957;-64
2023/02/23 05:35:11;;;;;;;;;;;12.00;51.60;;;;;;5102517;28;19956;-61
2023/02/23 05:37:37;;;;;;;;;;;12.00;51.40;;;;;;5106353;28;20059;-64
2023/02/23 05:40:03;;;;;;;;;;;11.90;51.80;;;;;;5106003;28;19986;-64
2023/02/23 05:42:29;;;;;;;;;;;11.90;52.20;;;;;;5105948;28;19963;-61
2023/02/23 05:44:55;;;;;;;;;;;11.90;52.50;;;;;;5106432;28;19961;-65
2023/02/23 05:47:21;;;;;;;;;;;11.80;52.20;;;;;;5105479;28;20448;-65
2023/02/23 05:49:47;;;;;;;;;;;11.90;52.30;;;;;;5101749;28;19956;-64
2023/02/23 05:52:13;;;;;;;;;;;11.90;52.50;;;;;;5099588;28;19972;-64
2023/02/23 05:54:39;;;;;;;;;;;11.80;52.80;;;;;;5097977;28;20008;-64
2023/02/23 05:57:07;;;;;;;;;;;11.80;53.00;;;;;;5104671;28;19972;-64
2023/02/23 05:59:33;;;;;;;;;;;11.80;53.10;;;;;;5100858;28;20409;-63
2023/02/23 06:01:59;;;;;;;;;;;11.80;53.50;;;;;;5100476;28;20055;-64
2023/02/23 06:04:25;;;;;;;;;;;11.80;53.70;;;;;;5098003;28;20003;-65
2023/02/23 06:06:51;;;;;;;;;;;11.80;53.90;;;;;;5102504;28;20014;-63
2023/02/23 06:09:17;;;;;;;;;;;11.90;53.90;;;;;;5084792;28;19980;-64
2023/02/23 06:11:43;;;;;;;;;;;12.00;53.60;;;;;;5092571;28;20059;-62
2023/02/23 06:14:09;;;;;;;;;;;11.80;53.90;;;;;;5103717;28;19964;-63
2023/02/23 06:16:35;;;;;;;;;;;11.80;54.00;;;;;;5107766;28;20321;-63
2023/02/23 06:19:01;;;;;;;;;;;11.80;54.10;;;;;;5105069;28;20063;-64
2023/02/23 06:21:27;;;;;;;;;;;11.70;54.10;;;;;;5105573;28;19956;-64
2023/02/23 06:23:53;;;;;;;;;;;11.70;53.90;;;;;;5106013;28;19978;-65
2023/02/23 06:26:19;;;;;;;;;;;11.70;53.60;;;;;;5102873;28;20498;-64
2023/02/23 06:28:45;;;;;;;;;;;11.70;54.00;;;;;;5101891;28;20024;-65
2023/02/23 06:31:11;;;;;;;;;;;11.70;53.50;;;;;;5103877;28;19956;-63
2023/02/23 06:33:38;;;;;;;;;;;11.60;53.20;;;;;;5102068;28;21512;-63
2023/02/23 06:36:04;;;;;;;;;;;11.60;53.50;;;;;;5102648;28;20402;-63
2023/02/23 06:38:30;;;;;;;;;;;11.60;53.30;;;;;;5106820;28;19956;-64
2023/02/23 06:40:56;;;;;;;;;;;11.70;53.60;;;;;;5088442;28;20367;-63
2023/02/23 06:43:22;;;;;;;;;;;11.70;53.70;;;;;;5100678;28;20341;-62
2023/02/23 06:45:48;;;;;;;;;;;11.70;53.90;;;;;;5104184;28;19957;-65
2023/02/23 06:48:16;;;;;;;;;;;11.70;54.20;;;;;;5104295;28;19972;-63
2023/02/23 06:50:42;;;;;;;;;;;11.80;54.20;;;;;;5106203;28;19960;-63
2023/02/23 06:53:08;;;;;;;;;;;11.80;54.60;;;;;;5100472;28;20395;-63
2023/02/23 06:55:34;;;;;;;;;;;11.80;54.60;;;;;;5102653;28;20597;-65
2023/02/23 06:58:00;;;;;;;;;;;11.80;54.20;;;;;;5103347;28;20005;-63
2023/02/23 07:00:26;;;;;;;;;;;11.80;54.50;;;;;;5103428;28;20027;-62
2023/02/23 07:02:52;;;;;;;;;;;11.80;54.20;;;;;;5100234;28;19983;-64
2023/02/23 07:05:18;;;;;;;;;;;11.80;54.20;;;;;;5096251;28;20585;-62
2023/02/23 07:07:45;;;;;;;;;;;11.80;54.10;;;;;;5096870;28;19972;-63
2023/02/23 07:10:11;;;;;;;;;;;11.80;54.10;;;;;;5101134;28;20465;-64
2023/02/23 07:12:37;;;;;;;;;;;11.70;54.10;;;;;;5101056;28;19960;-64
2023/02/23 07:15:04;;;;;;;;;;;11.80;54.30;;;;;;5101258;28;20732;-63
2023/02/23 07:17:30;;;;;;;;;;;11.80;54.30;;;;;;5099177;28;20025;-64
2023/02/23 07:19:56;;;;;;;;;;;11.70;54.20;;;;;;5100284;28;19984;-63
2023/02/23 07:22:26;;;;;;;;;;;11.80;54.40;;;;;;5101386;28;19964;-63
2023/02/23 07:24:52;;;;;;;;;;;11.70;54.50;;;;;;5103339;28;20009;-63
2023/02/23 07:27:18;;;;;;;;;;;11.80;54.70;;;;;;5101613;28;19960;-62
2023/02/23 07:29:44;;;;;;;;;;;11.80;54.80;;;;;;5099681;28;20392;-63
2023/02/23 07:32:10;;;;;;;;;;;11.80;54.70;;;;;;5098205;28;19963;-62
2023/02/23 07:34:36;;;;;;;;;;;11.70;54.90;;;;;;5100394;28;19961;-62
2023/02/23 07:37:02;;;;;;;;;;;11.80;55.00;;;;;;5100018;28;19964;-62
2023/02/23 07:39:29;;;;;;;;;;;11.80;55.00;;;;;;5098969;28;19956;-62
2023/02/23 07:41:56;;;;;;;;;;;11.80;55.10;;;;;;5099178;28;20011;-63
2023/02/23 07:44:22;;;;;;;;;;;11.80;55.10;;;;;;5101058;28;19965;-62
2023/02/23 07:46:49;;;;;;;;;;;11.80;55.40;;;;;;5102468;28;19972;-63
2023/02/23 07:49:15;;;;;;;;;;;11.80;55.50;;;;;;5099950;28;19976;-62
2023/02/23 07:51:41;;;;;;;;;;;11.80;55.60;;;;;;5100638;28;20419;-63
2023/02/23 07:54:07;;;;;;;;;;;11.70;55.60;;;;;;5100998;28;19957;-63
2023/02/23 07:56:34;;;;;;;;;;;11.60;55.60;;;;;;5101784;28;20021;-62
2023/02/23 07:59:00;;;;;;;;;;;11.70;56.10;;;;;;5101323;28;20089;-63
2023/02/23 08:01:26;;;;;;;;;;;11.60;55.80;;;;;;5100547;28;19991;-62
2023/02/23 08:03:52;;;;;;;;;;;11.70;56.10;;;;;;5100917;28;20003;-62
2023/02/23 08:06:18;;;;;;;;;;;11.70;56.20;;;;;;5103327;28;19972;-62
2023/02/23 08:08:44;;;;;;;;;;;11.50;56.30;;;;;;5099545;28;19980;-63
2023/02/23 08:11:10;;;;;;;;;;;11.50;56.80;;;;;;5100139;28;20399;-63
2023/02/23 08:13:37;;;;;;;;;;;11.50;56.30;;;;;;5102419;28;19960;-63
2023/02/23 08:16:03;;;;;;;;;;;11.40;56.20;;;;;;5102731;28;20343;-63
2023/02/23 08:18:29;;;;;;;;;;;11.30;56.00;;;;;;5097687;28;19994;-62
2023/02/23 08:21:01;;;;;;;;;;;11.30;56.30;;;;;;5101626;28;20350;-61
2023/02/23 08:23:32;;;;;;;;;;;11.30;56.30;;;;;;5099650;28;19953;-63
2023/02/23 08:25:58;;;;;;;;;;;11.30;56.50;;;;;;5099386;28;20069;-62
2023/02/23 08:28:25;;;;;;;;;;;11.20;56.60;;;;;;5102836;28;20392;-61
2023/02/23 08:30:51;;;;;;;;;;;11.20;56.70;;;;;;5097733;28;20335;-62
2023/02/23 08:33:17;;;;;;;;;;;11.20;56.70;;;;;;5099082;28;20481;-61
2023/02/23 08:35:44;;;;;;;;;;;11.20;57.00;;;;;;5098753;28;20002;-61
2023/02/23 08:38:10;;;;;;;;;;;11.20;56.80;;;;;;5098412;28;19964;-61
2023/02/23 08:40:36;;;;;;;;;;;11.10;56.70;;;;;;5102217;28;19960;-62
2023/02/23 08:43:02;;;;;;;;;;;11.10;56.90;;;;;;5101261;28;19976;-61
2023/02/23 08:45:28;;;;;;;;;;;11.10;56.80;;;;;;5102274;28;20055;-61
2023/02/23 08:47:55;;;;;;;;;;;11.10;56.90;;;;;;5097765;28;20011;-61
2023/02/23 08:50:21;;;;;;;;;;;11.10;56.90;;;;;;5097498;28;20470;-62
2023/02/23 08:52:47;;;;;;;;;;;11.00;56.90;;;;;;5103887;28;20423;-62
2023/02/23 08:55:15;;;;;;;;;;;11.10;57.00;;;;;;5099200;28;19960;-62
2023/02/23 08:57:41;;;;;;;;;;;11.00;56.80;;;;;;5099816;28;19963;-62
2023/02/23 09:00:12;;;;;;;;;;;11.00;56.70;;;;;;5101497;28;20345;-61
2023/02/23 09:02:42;;;;;;;;;;;11.00;56.60;;;;;;5099744;28;20473;-61
2023/02/23 09:05:09;;;;;;;;;;;11.10;56.70;;;;;;5100494;28;20346;-62
2023/02/23 09:07:36;;;;;;;;;;;11.10;56.60;;;;;;5098414;28;19972;-61
2023/02/23 09:10:02;;;;;;;;;;;11.00;56.40;;;;;;5099988;28;20514;-61
2023/02/23 09:12:28;;;;;;;;;;;11.00;56.50;;;;;;5103048;28;20360;-62
2023/02/23 09:14:54;;;;;;;;;;;10.90;56.60;;;;;;5099534;28;19979;-62
2023/02/23 09:17:21;;;;;;;;;;;10.90;56.70;;;;;;5100737;28;19963;-61
2023/02/23 09:19:48;;;;;;;;;;;11.00;56.70;;;;;;5099108;28;19984;-62
2023/02/23 09:22:17;;;;;;;;;;;10.90;56.60;;;;;;5099354;28;19964;-62
2023/02/23 09:24:43;;;;;;;;;;;10.90;56.70;;;;;;5098061;28;20107;-62
2023/02/23 09:27:11;;;;;;;;;;;11.00;56.70;;;;;;5098579;28;19972;-62
2023/02/23 09:29:41;;;;;;;;;;;11.00;57.10;;;;;;5100241;28;19977;-61
2023/02/23 09:32:07;;;;;;;;;;;11.10;56.60;;;;;;5095363;28;19953;-63
2023/02/23 09:34:33;;;;;;;;;;;11.10;56.60;;;;;;5097836;28;20410;-61
2023/02/23 09:37:02;;;;;;;;;;;11.20;56.80;;;;;;5100005;28;20310;-61
2023/02/23 09:39:28;;;;;;;;;;;11.30;57.00;;;;;;5097795;28;20465;-62
2023/02/23 09:42:00;;;;;;;;;;;11.30;56.70;;;;;;5102432;28;19964;-61
2023/02/23 09:44:28;;;;;;;;;;;11.30;56.10;;;;;;5102828;28;19956;-62
2023/02/23 09:47:13;;;;;;;;;;;11.40;56.40;;;;;;5105474;28;19960;-62
2023/02/23 09:49:40;;;;;;;;;;;11.40;56.50;;;;;;5106120;28;19978;-61
2023/02/23 09:52:10;;;;;;;;;;;11.50;56.10;;;;;;5103391;28;20334;-62
2023/02/23 09:54:36;;;;;;;;;;;11.40;56.20;;;;;;5103487;28;19961;-62
2023/02/23 09:57:05;;;;;;;;;;;11.40;55.40;;;;;;5104433;28;20054;-62
2023/02/23 09:59:31;;;;;;;;;;;11.40;55.60;;;;;;5104957;28;19978;-62
2023/02/23 10:02:08;;;;;;;;;;;11.40;56.00;;;;;;5098540;28;20021;-63
2023/02/23 10:04:37;;;;;;;;;;;11.50;56.40;;;;;;5103952;28;20033;-62
2023/02/23 10:07:11;;;;;;;;;;;11.50;56.60;;;;;;5105845;28;19964;-62
2023/02/23 10:09:43;;;;;;;;;;;11.50;56.70;;;;;;5103502;28;19980;-61
2023/02/23 10:12:12;;;;;;;;;;;11.60;57.10;;;;;;5105754;28;20512;-61
2023/02/23 10:14:57;;;;;;;;;;;11.60;57.30;;;;;;5106130;28;20055;-63
2023/02/23 10:17:29;;;;;;;;;;;11.60;57.50;;;;;;5105087;28;19956;-61
2023/02/23 10:20:13;;;;;;;;;;;11.60;57.80;;;;;;5104274;28;20362;-62
2023/02/23 10:22:40;;;;;;;;;;;11.60;58.20;;;;;;5102359;28;19960;-63
2023/02/23 10:25:14;;;;;;;;;;;11.60;58.60;;;;;;5102176;28;20599;-61
2023/02/23 10:27:43;;;;;;;;;;;11.60;59.20;;;;;;5104200;28;19955;-62
2023/02/23 10:30:21;;;;;;;;;;;11.50;59.60;;;;;;5103281;28;20072;-62
2023/02/23 10:33:00;;;;;;;;;;;11.50;60.10;;;;;;5104310;28;20050;-62
2023/02/23 10:35:28;;;;;;;;;;;11.50;60.50;;;;;;5086027;28;20006;-63
2023/02/23 10:37:55;;;;;;;;;;;11.60;60.60;;;;;;5103006;28;19956;-63
2023/02/23 10:40:23;;;;;;;;;;;11.60;60.50;;;;;;5102831;28;19953;-62
2023/02/23 10:42:49;;;;;;;;;;;11.60;61.00;;;;;;5102074;28;20357;-61
2023/02/23 10:45:23;;;;;;;;;;;11.50;61.20;;;;;;5101631;28;19980;-63
2023/02/23 10:47:55;;;;;;;;;;;11.50;62.00;;;;;;5098233;28;19971;-62
2023/02/23 10:50:21;;;;;;;;;;;11.50;62.00;;;;;;5100262;28;20048;-63
2023/02/23 10:52:50;;;;;;;;;;;11.50;62.40;;;;;;5101805;28;19976;-62
2023/02/23 10:55:25;;;;;;;;;;;11.50;62.80;;;;;;5100199;28;20011;-63
2023/02/23 10:58:15;;;;;;;;;;;11.60;63.30;;;;;;5102848;28;19997;-62
2023/02/23 11:00:50;;;;;;;;;;;11.60;63.80;;;;;;5102229;28;19957;-62
2023/02/23 11:03:32;;;;;;;;;;;11.60;64.10;;;;;;5102352;28;19986;-62
2023/02/23 11:05:58;;;;;;;;;;;11.70;64.30;;;;;;5100783;28;20433;-62
2023/02/23 11:08:31;;;;;;;;;;;11.70;64.30;;;;;;5100633;28;20020;-62
2023/02/23 11:11:02;;;;;;;;;;;11.70;64.40;;;;;;5103295;28;20497;-62
2023/02/23 11:13:32;;;;;;;;;;;11.80;64.80;;;;;;5100445;28;19956;-62
2023/02/23 11:16:08;;;;;;;;;;;11.80;64.50;;;;;;5104320;28;19961;-66
2023/02/23 11:18:35;;;;;;;;;;;11.70;64.70;;;;;;5101629;28;20446;-58
2023/02/23 11:21:01;;;;;;;;;;;12.00;65.00;;;;;;5105294;28;19964;-56
2023/02/23 11:23:35;;;;;;;;;;;12.00;64.10;;;;;;5104803;28;21290;-61
2023/02/23 11:26:02;;;;;;;;;;;12.00;64.30;;;;;;5100979;28;19956;-61
2023/02/23 11:28:33;;;;;;;;;;;12.00;63.80;;;;;;5100612;28;19972;-57
2023/02/23 11:31:28;;;;;;;;;;;12.10;63.80;;;;;;5098675;28;20010;-57
2023/02/23 11:33:55;;;;;;;;;;;12.10;64.00;;;;;;5090560;28;19963;-59
2023/02/23 11:36:21;;;;;;;;;;;12.20;63.90;;;;;;5101643;28;19976;-62
2023/02/23 11:38:55;;;;;;;;;;;12.10;64.60;;;;;;5097857;28;20009;-59
2023/02/23 11:41:22;;;;;;;;;;;12.20;64.60;;;;;;5099585;28;21527;-62
2023/02/23 11:43:56;;;;;;;;;;;12.30;64.80;;;;;;5101441;28;20030;-62
2023/02/23 11:46:22;;;;;;;;;;;12.30;64.30;;;;;;5100952;28;20583;-59
2023/02/23 11:48:51;;;;;;;;;;;12.10;64.00;;;;;;5101319;28;20030;-58
2023/02/23 11:51:25;;;;;;;;;;;12.00;64.60;;;;;;5100492;28;19980;-62
2023/02/23 11:53:51;;;;;;;;;;;12.10;65.10;;;;;;5098629;28;20455;-57
2023/02/23 11:56:22;;;;;;;;;;;12.10;64.70;;;;;;5100322;28;20330;-59
2023/02/23 11:58:50;;;;;;;;;;;12.20;64.60;;;;;;5099525;28;20433;-61
2023/02/23 12:01:22;;;;;;;;;;;12.10;64.70;;;;;;5099667;28;20325;-59
2023/02/23 12:03:50;;;;;;;;;;;11.90;65.00;;;;;;5100685;28;19953;-61
2023/02/23 12:06:36;;;;;;;;;;;11.80;65.40;;;;;;5099981;28;19995;-62
2023/02/23 12:09:05;;;;;;;;;;;11.70;66.00;;;;;;5099811;28;19979;-61
2023/02/23 12:11:38;;;;;;;;;;;11.60;66.30;;;;;;5101625;28;19963;-58
2023/02/23 12:14:13;;;;;;;;;;;11.60;66.60;;;;;;5101201;28;20438;-57
2023/02/23 12:16:46;;;;;;;;;;;11.70;66.60;;;;;;5100753;28;19962;-58
2023/02/23 12:19:18;;;;;;;;;;;11.70;66.70;;;;;;5099963;28;19988;-58
2023/02/23 12:21:47;;;;;;;;;;;11.60;67.20;;;;;;5099182;28;20423;-60
2023/02/23 12:24:19;;;;;;;;;;;11.50;67.20;;;;;;5097843;28;20066;-59
2023/02/23 12:26:49;;;;;;;;;;;11.40;67.20;;;;;;5100349;28;19964;-62
2023/02/23 12:29:31;;;;;;;;;;;11.30;65.40;;;;;;5100665;28;20011;-59
2023/02/23 12:32:01;;;;;;;;;;;11.20;64.00;;;;;;5099839;28;20319;-62
2023/02/23 12:34:27;;;;;;;;;;;11.10;63.70;;;;;;5098161;28;20342;-60
2023/02/23 12:36:58;;;;;;;;;;;11.00;63.90;;;;;;5099422;28;19987;-62
2023/02/23 12:39:29;;;;;;;;;;;10.90;63.90;;;;;;5098432;28;20471;-61
2023/02/23 12:42:16;;;;;;;;;;;10.80;64.10;;;;;;5100007;28;19952;-62
2023/02/23 12:44:48;;;;;;;;;;;10.70;63.20;;;;;;5101185;28;19990;-63
2023/02/23 12:47:23;;;;;;;;;;;10.50;62.70;;;;;;5099269;28;20494;-62
2023/02/23 12:50:18;;;;;;;;;;;10.40;62.90;;;;;;5098397;28;20434;-62
2023/02/23 12:52:50;;;;;;;;;;;10.40;62.80;;;;;;5081614;28;20403;-61
2023/02/23 12:55:21;;;;;;;;;;;10.30;63.10;;;;;;5099457;28;19960;-62
2023/02/23 12:57:56;;;;;;;;;;;10.30;63.70;;;;;;5098222;28;19960;-62
2023/02/23 13:00:57;;;;;;;;;;;10.30;63.20;;;;;;5101935;28;20480;-61
2023/02/23 13:03:25;;;;;;;;;;;10.30;62.80;;;;;;5023619;28;19969;-62
2023/02/23 13:06:03;;;;;;;;;;;10.20;62.80;;;;;;5026046;28;19988;-57
2023/02/23 13:08:40;;;;;;;;;;;10.10;62.70;;;;;;5023803;28;19977;-59
2023/02/23 13:11:26;;;;;;;;;;;10.10;62.80;;;;;;5026913;28;21024;-62
2023/02/23 13:14:10;;;;;;;;;;;10.10;63.10;;;;;;4994089;28;19961;-62
2023/02/23 13:16:43;;;;;;;;;;;10.00;63.30;;;;;;5024926;28;21701;-62
2023/02/23 13:19:27;;;;;;;;;;;9.90;63.10;;;;;;5024916;28;20051;-60
2023/02/23 13:22:11;;;;;;;;;;;9.90;63.00;;;;;;5026035;28;19977;-60
2023/02/23 13:24:39;;;;;;;;;;;9.80;62.80;;;;;;5024324;28;20421;-58
2023/02/23 13:27:15;;;;;;;;;;;9.70;62.80;;;;;;5025508;28;19973;-59
2023/02/23 13:29:42;;;;;;;;;;;9.60;63.10;;;;;;5025697;28;19980;-61
2023/02/23 13:32:11;;;;;;;;;;;9.40;63.80;;;;;;5024285;28;20056;-61
2023/02/23 13:34:45;;;;;;;;;;;9.30;64.20;;;;;;5023087;28;20530;-61
2023/02/23 13:37:13;;;;;;;;;;;9.30;64.60;;;;;;5024798;28;19964;-58
2023/02/23 13:39:48;;;;;;;;;;;9.30;64.80;;;;;;5081307;28;19956;-61
2023/02/23 13:42:20;;;;;;;;;;;9.20;65.00;;;;;;5100336;28;19956;-61
2023/02/23 13:44:49;;;;;;;;;;;9.10;65.30;;;;;;5100827;28;19965;-61
2023/02/23 13:47:34;;;;;;;;;;;9.10;65.40;;;;;;5097635;28;19982;-62
2023/02/23 13:50:00;;;;;;;;;;;9.10;65.40;;;;;;5095565;28;20078;-62
2023/02/23 13:52:38;;;;;;;;;;;9.20;65.80;;;;;;5097404;28;20051;-60
2023/02/23 13:55:24;;;;;;;;;;;9.10;66.60;;;;;;5096623;28;19956;-62
2023/02/23 13:57:56;;;;;;;;;;;8.90;66.50;;;;;;5097105;28;20007;-62
2023/02/23 14:00:23;;;;;;;;;;;8.90;67.10;;;;;;5097248;28;20424;-62
2023/02/23 14:02:49;;;;;;;;;;;9.00;66.60;;;;;;5098687;28;19970;-57
2023/02/23 14:05:18;;;;;;;;;;;8.90;66.20;;;;;;5096574;28;20042;-61
2023/02/23 14:07:46;;;;;;;;;;;8.90;65.90;;;;;;5098512;28;19979;-61
2023/02/23 14:10:23;;;;;;;;;;;8.90;65.30;;;;;;5097974;28;19973;-62
2023/02/23 14:13:04;;;;;;;;;;;8.90;65.20;;;;;;5099079;28;19956;-60
2023/02/23 14:15:39;;;;;;;;;;;8.90;65.00;;;;;;5098658;28;19963;-62
2023/02/23 14:18:20;;;;;;;;;;;8.90;65.60;;;;;;5098050;28;20453;-62
2023/02/23 14:20:46;;;;;;;;;;;8.70;65.50;;;;;;5096761;28;20038;-62
2023/02/23 14:23:21;;;;;;;;;;;8.70;65.60;;;;;;5098857;28;20004;-57
2023/02/23 14:25:47;;;;;;;;;;;8.70;65.90;;;;;;5098298;28;20345;-62
2023/02/23 14:28:22;;;;;;;;;;;8.80;65.90;;;;;;5097478;28;20011;-62
2023/02/23 14:31:07;;;;;;;;;;;8.80;66.00;;;;;;5100943;28;19959;-62
2023/02/23 14:33:36;;;;;;;;;;;8.90;65.60;;;;;;5100874;28;20821;-58
2023/02/23 14:36:22;;;;;;;;;;;8.90;65.80;;;;;;5101063;28;20318;-58
2023/02/23 14:38:51;;;;;;;;;;;8.90;65.90;;;;;;5104577;28;19956;-57
2023/02/23 14:41:21;;;;;;;;;;;8.90;66.00;;;;;;5101113;28;20440;-61
2023/02/23 14:43:49;;;;;;;;;;;8.80;65.70;;;;;;5100379;28;19976;-58
2023/02/23 14:46:23;;;;;;;;;;;8.90;65.90;;;;;;5108290;28;19959;-58
2023/02/23 14:49:00;;;;;;;;;;;9.00;65.80;;;;;;5108356;28;20011;-61
2023/02/23 14:51:35;;;;;;;;;;;9.00;65.50;;;;;;5104546;28;20003;-59
2023/02/23 14:54:10;;;;;;;;;;;9.10;65.80;;;;;;5107027;28;19968;-62
2023/02/23 14:56:45;;;;;;;;;;;9.10;65.30;;;;;;5109411;28;19979;-57
2023/02/23 14:59:17;;;;;;;;;;;9.20;65.30;;;;;;5109787;28;20459;-61
2023/02/23 15:01:43;;;;;;;;;;;9.20;64.80;;;;;;5107879;28;19976;-62
2023/02/23 15:04:11;;;;;;;;;;;9.10;65.40;;;;;;5105842;28;20006;-62
2023/02/23 15:06:38;;;;;;;;;;;9.10;66.20;;;;;;5110387;28;20078;-62
2023/02/23 15:09:04;;;;;;;;;;;9.10;65.80;;;;;;5107408;28;19980;-62
2023/02/23 15:11:30;;;;;;;;;;;9.10;66.30;;;;;;5108013;28;19964;-58
2023/02/23 15:13:56;;;;;;;;;;;9.20;66.30;;;;;;5105702;28;19979;-61
2023/02/23 15:16:27;;;;;;;;;;;9.30;66.80;;;;;;5106856;28;20427;-57
2023/02/23 15:18:54;;;;;;;;;;;9.30;65.70;;;;;;5106654;28;19984;-62
2023/02/23 15:21:21;;;;;;;;;;;9.30;65.60;;;;;;5108322;28;19979;-59
2023/02/23 15:23:48;;;;;;;;;;;9.40;65.90;;;;;;5107010;28;19961;-62
2023/02/23 15:26:23;;;;;;;;;;;9.40;65.10;;;;;;5107618;28;19964;-59
2023/02/23 15:28:49;;;;;;;;;;;9.50;64.50;;;;;;5106666;28;19999;-63
2023/02/23 15:31:16;;;;;;;;;;;9.60;64.80;;;;;;5107912;28;20005;-60
2023/02/23 15:33:43;;;;;;;;;;;9.70;64.90;;;;;;5110182;28;19963;-63